Time;durP1;ratioP1;P1;durP2;ratioP2;P2;SDS_P1;SDS_P2;PMS_P1;PMS_P2;Temp;Humidity;BMP_temperature;BMP_pressure;BME280_temperature;BME280_humidity;BME280_pressure;Samples;Min_cycle;Max_cycle;Signal;HPM_P1;HPM_P2
2021/08/07 00:02:00;;;;;;;8.00;3.80;;;;;;;16.80;66.68;100159.38;10535947;28;20085;-80
2021/08/07 00:07:00;;;;;;;14.55;3.03;;;;;;;17.89;66.52;100338.94;10536169;28;20032;-80
2021/08/07 00:12:01;;;;;;;6.95;3.22;;;;;;;17.83;66.24;100328.19;10536309;28;20108;-80
2021/08/07 00:17:01;;;;;;;6.68;3.50;;;;;;;17.53;67.13;100318.56;10536377;28;20141;-80
2021/08/07 00:22:04;;;;;;;5.45;3.17;;;;;;;17.61;67.89;100336.44;10501461;28;20117;-79
2021/08/07 00:27:05;;;;;;;4.93;2.78;;;;;;;17.40;67.79;100330.75;10534152;28;20085;-80
2021/08/07 00:32:05;;;;;;;7.90;4.28;;;;;;;17.37;67.90;100328.53;10532336;28;20036;-80
2021/08/07 00:37:08;;;;;;;2.95;2.75;;;;;;;17.49;67.50;100342.06;10515661;28;20107;-79
2021/08/07 00:42:08;;;;;;;24.10;4.40;;;;;;;17.51;67.06;100328.13;10515052;28;20126;-81
2021/08/07 00:47:08;;;;;;;9.23;3.22;;;;;;;17.35;67.12;100336.16;10515869;28;20142;-79
2021/08/07 00:52:09;;;;;;;12.95;3.70;;;;;;;17.32;67.70;100327.63;10532230;28;20036;-80
2021/08/07 00:57:09;;;;;;;12.82;4.22;;;;;;;17.44;66.39;100328.31;10513231;28;20531;-80
2021/08/07 01:02:13;;;;;;;9.63;3.28;;;;;;;17.25;67.08;100332.47;10511757;28;20040;-79
2021/08/07 01:07:22;;;;;;;16.48;4.32;;;;;;;17.35;66.76;100322.47;10512318;28;20087;-79
2021/08/07 01:12:27;;;;;;;7.13;3.30;;;;;;;17.14;66.35;100301.44;10496232;28;20105;-80
2021/08/07 01:17:28;;;;;;;16.73;4.38;;;;;;;16.85;68.35;100279.75;10496216;28;20039;-80
2021/08/07 01:22:46;;;;;;;5.85;4.15;;;;;;;16.80;68.42;100290.63;10496800;28;20497;-79
2021/08/07 01:27:47;;;;;;;17.13;5.22;;;;;;;17.14;67.58;100310.47;10512378;28;20039;-79
2021/08/07 01:32:47;;;;;;;10.88;2.85;;;;;;;17.10;67.60;100305.75;10486733;28;20056;-80
2021/08/07 01:37:48;;;;;;;23.90;4.75;;;;;;;17.16;67.63;100307.47;10504114;28;20055;-79
2021/08/07 01:42:48;;;;;;;9.85;4.30;;;;;;;17.22;66.94;100300.16;10540897;28;20065;-80
2021/08/07 01:47:52;;;;;;;10.18;3.80;;;;;;;17.21;66.83;100293.88;10529217;28;20046;-80
2021/08/07 01:53:01;;;;;;;9.38;4.25;;;;;;;17.08;66.61;100267.72;10547111;28;20035;-80
2021/08/07 01:58:07;;;;;;;25.42;3.17;;;;;;;16.97;67.42;100265.94;10513044;28;20401;-80
2021/08/07 02:03:11;;;;;;;6.70;3.80;;;;;;;17.07;68.08;100278.91;10546550;28;20034;-80
2021/08/07 02:08:12;;;;;;;10.00;6.15;;;;;;;16.85;68.13;100262.53;10511370;28;20060;-80
2021/08/07 02:13:13;;;;;;;5.57;3.15;;;;;;;17.12;67.25;100285.28;10511373;28;20079;-80
2021/08/07 02:18:14;;;;;;;6.78;2.83;;;;;;;17.04;68.06;100291.22;10528072;28;20101;-80
2021/08/07 02:23:15;;;;;;;11.45;3.50;;;;;;;16.84;68.15;100252.66;10527718;28;20034;-80
2021/08/07 02:28:16;;;;;;;17.38;4.10;;;;;;;17.10;67.70;100290.19;10510784;28;20391;-80
2021/08/07 02:33:17;;;;;;;20.15;4.78;;;;;;;17.14;67.58;100293.25;10526491;28;20060;-80
2021/08/07 02:38:18;;;;;;;16.55;3.85;;;;;;;16.97;67.89;100282.34;10510531;28;20123;-80
2021/08/07 02:43:19;;;;;;;9.70;2.88;;;;;;;17.09;67.72;100288.50;10510443;28;20067;-80
2021/08/07 02:48:20;;;;;;;10.07;3.45;;;;;;;17.06;67.87;100289.03;10510408;28;20032;-80
2021/08/07 02:53:20;;;;;;;12.23;2.55;;;;;;;17.14;67.91;100279.56;10509436;28;20031;-80
2021/08/07 02:58:21;;;;;;;9.20;4.50;;;;;;;17.11;67.96;100288.28;10526072;28;20028;-80
2021/08/07 03:03:21;;;;;;;16.77;4.38;;;;;;;17.12;68.05;100277.06;10525489;28;20036;-80
2021/08/07 03:08:22;;;;;;;9.32;4.25;;;;;;;16.96;69.09;100280.69;10544139;28;20063;-80
2021/08/07 03:13:22;;;;;;;5.80;2.42;;;;;;;17.12;68.78;100278.97;10543557;28;20056;-80
2021/08/07 03:18:23;;;;;;;10.10;2.92;;;;;;;17.06;68.41;100285.47;10543473;28;20507;-80
2021/08/07 03:23:23;;;;;;;17.33;3.70;;;;;;;17.16;67.97;100285.59;10525664;28;20107;-80
2021/08/07 03:28:24;;;;;;;16.20;3.65;;;;;;;17.05;68.44;100279.19;10543381;28;20032;-80
2021/08/07 03:33:24;;;;;;;11.23;3.83;;;;;;;17.34;67.53;100282.50;10542258;28;20036;-80
2021/08/07 03:38:24;;;;;;;24.98;4.30;;;;;;;17.20;68.17;100282.09;10524943;28;20477;-80
2021/08/07 03:43:25;;;;;;;4.68;3.53;;;;;;;16.67;68.15;100200.75;10542547;28;20060;-80
2021/08/07 03:48:25;;;;;;;11.20;3.35;;;;;;;17.11;67.91;100252.72;10507789;28;20107;-80
2021/08/07 03:53:26;;;;;;;6.60;3.40;;;;;;;17.10;69.10;100253.78;10542226;28;20035;-80
2021/08/07 03:58:26;;;;;;;5.28;2.92;;;;;;;17.11;67.85;100266.38;10542040;28;20043;-80
2021/08/07 04:03:26;;;;;;;7.82;3.15;;;;;;;16.96;68.62;100281.53;10523631;28;20447;-80
2021/08/07 04:08:27;;;;;;;5.50;1.90;;;;;;;17.22;67.81;100251.72;10523602;28;20173;-80
2021/08/07 04:13:27;;;;;;;9.90;2.80;;;;;;;17.19;67.93;100253.06;10541284;28;20055;-80
2021/08/07 04:18:28;;;;;;;10.20;3.17;;;;;;;17.16;67.25;100247.28;10541435;28;20093;-80
2021/08/07 04:23:28;;;;;;;11.98;4.32;;;;;;;17.03;67.86;100236.75;10522992;28;20068;-80
2021/08/07 04:28:29;;;;;;;11.77;3.80;;;;;;;17.25;66.88;100253.94;10541034;28;20072;-80
2021/08/07 04:33:29;;;;;;;6.15;2.78;;;;;;;17.13;68.29;100253.25;10521752;28;20115;-80
2021/08/07 04:38:30;;;;;;;14.15;3.90;;;;;;;17.08;67.33;100258.69;10540425;28;20046;-80
2021/08/07 04:43:31;;;;;;;5.88;2.47;;;;;;;17.26;67.33;100258.34;10505735;28;20473;-80
2021/08/07 04:48:32;;;;;;;4.70;3.00;;;;;;;17.44;68.10;100260.72;10540107;28;20047;-80
2021/08/07 04:53:32;;;;;;;4.75;3.10;;;;;;;17.55;68.70;100242.50;10539920;28;20040;-80
2021/08/07 04:58:33;;;;;;;13.35;3.38;;;;;;;17.71;69.13;100254.41;10539908;28;20071;-80
2021/08/07 05:03:33;;;;;;;10.77;3.90;;;;;;;17.61;69.34;100254.28;10521118;28;20059;-80
2021/08/07 05:08:36;;;;;;;6.85;3.72;;;;;;;17.56;67.07;100158.44;10521690;28;20119;-80
2021/08/07 05:13:37;;;;;;;34.70;4.93;;;;;;;18.48;66.82;100252.25;10521057;28;20086;-79
2021/08/07 05:18:37;;;;;;;9.20;3.75;;;;;;;18.74;67.54;100250.47;10520973;28;20081;-80
2021/08/07 05:23:38;;;;;;;8.18;3.20;;;;;;;18.81;66.96;100201.69;10539195;28;20162;-80
2021/08/07 05:28:38;;;;;;;7.35;2.55;;;;;;;19.09;65.29;100203.13;10521425;28;20039;-80
2021/08/07 05:33:39;;;;;;;2.95;2.25;;;;;;;20.07;64.43;100236.97;10538263;28;20536;-80
2021/08/07 05:38:39;;;;;;;13.02;2.75;;;;;;;20.85;63.01;100240.09;10538977;28;20076;-80
2021/08/07 05:43:40;;;;;;;10.65;3.45;;;;;;;20.12;62.82;100212.25;10520994;28;20109;-80
2021/08/07 05:48:40;;;;;;;9.65;2.95;;;;;;;20.80;62.22;100242.03;10538674;28;20128;-80
2021/08/07 05:53:40;;;;;;;6.43;3.58;;;;;;;20.62;62.10;100230.56;10521040;28;20111;-81
2021/08/07 05:58:42;;;;;;;6.13;2.20;;;;;;;20.32;63.65;100244.34;10521011;28;20047;-81
2021/08/07 06:03:43;;;;;;;11.82;2.15;;;;;;;20.09;63.33;100232.84;10519954;28;20048;-81
2021/08/07 06:08:45;;;;;;;5.18;3.30;;;;;;;20.21;64.39;100216.06;10538909;28;20083;-81
2021/08/07 06:13:45;;;;;;;10.45;3.55;;;;;;;19.61;63.67;100225.97;10539498;28;20058;-81
2021/08/07 06:18:46;;;;;;;5.55;2.35;;;;;;;19.26;64.36;100181.75;10521682;28;20411;-79
2021/08/07 06:23:46;;;;;;;5.05;2.38;;;;;;;19.41;65.54;100216.63;10504318;28;20028;-79
2021/08/07 06:28:47;;;;;;;8.88;2.65;;;;;;;19.38;64.79;100221.84;10538315;28;20043;-80
2021/08/07 06:33:47;;;;;;;7.63;3.05;;;;;;;19.18;65.61;100207.00;10544872;28;20032;-80
2021/08/07 06:38:47;;;;;;;16.33;2.75;;;;;;;19.80;63.38;100216.13;10528244;28;20499;-80
2021/08/07 06:43:48;;;;;;;2.92;2.20;;;;;;;19.66;63.87;100218.59;10527967;28;20055;-79
2021/08/07 06:48:48;;;;;;;3.08;2.78;;;;;;;19.62;64.46;100212.00;10544965;28;20086;-79
2021/08/07 06:53:49;;;;;;;11.05;2.88;;;;;;;19.83;62.56;100185.34;10526514;28;20055;-80
2021/08/07 06:58:49;;;;;;;6.75;3.65;;;;;;;21.29;60.62;100205.44;10544577;28;20068;-80
2021/08/07 07:03:50;;;;;;;12.07;2.45;;;;;;;22.88;56.48;100208.31;10525486;28;20107;-80
2021/08/07 07:08:50;;;;;;;11.75;2.38;;;;;;;23.53;52.69;100181.97;10544995;28;20028;-80
2021/08/07 07:13:50;;;;;;;2.00;1.90;;;;;;;22.59;55.74;100205.66;10525680;28;20060;-80
2021/08/07 07:18:51;;;;;;;3.72;2.28;;;;;;;22.00;58.23;100213.16;10525524;28;20036;-80
2021/08/07 07:23:51;;;;;;;5.22;2.50;;;;;;;20.82;61.16;100226.09;10543655;28;20487;-79
2021/08/07 07:28:52;;;;;;;4.13;2.38;;;;;;;20.06;61.10;100221.59;10543265;28;20122;-80
2021/08/07 07:33:52;;;;;;;9.43;2.58;;;;;;;19.76;62.41;100201.31;10489834;28;20143;-80
2021/08/07 07:38:53;;;;;;;8.38;1.90;;;;;;;18.88;64.01;100128.16;10524781;28;20036;-79
2021/08/07 07:43:53;;;;;;;4.18;2.70;;;;;;;18.91;66.04;100225.56;10523960;28;20082;-79
2021/08/07 07:48:53;;;;;;;6.70;2.65;;;;;;;19.28;64.63;100223.47;10507835;28;20126;-80
2021/08/07 07:53:54;;;;;;;6.70;2.75;;;;;;;19.84;64.96;100214.47;10524524;28;20039;-80
2021/08/07 07:58:54;;;;;;;6.70;2.38;;;;;;;20.49;63.62;100195.38;10524202;28;20151;-80
2021/08/07 08:03:55;;;;;;;3.92;2.40;;;;;;;20.97;61.34;100209.50;10522929;28;20122;-80
2021/08/07 08:08:55;;;;;;;9.73;2.88;;;;;;;20.26;61.94;100210.56;10541409;28;20051;-80
2021/08/07 08:13:56;;;;;;;7.82;2.28;;;;;;;20.77;61.63;100204.94;10523437;28;20156;-80
2021/08/07 08:18:56;;;;;;;4.35;2.17;;;;;;;20.83;62.94;100216.72;10541523;28;20101;-80
2021/08/07 08:23:56;;;;;;;2.65;2.10;;;;;;;21.05;61.00;100195.13;10541066;28;20032;-80
2021/08/07 08:28:57;;;;;;;4.43;2.28;;;;;;;22.02;59.31;100196.34;10541039;28;20384;-80
2021/08/07 08:33:57;;;;;;;5.45;3.08;;;;;;;21.85;59.18;100179.41;10539917;28;20119;-80
2021/08/07 08:38:58;;;;;;;6.95;2.75;;;;;;;22.21;58.64;100193.69;10540603;28;20032;-80
2021/08/07 08:43:58;;;;;;;4.50;3.17;;;;;;;23.48;56.44;100193.09;10540831;28;20072;-80
2021/08/07 08:48:59;;;;;;;9.23;3.03;;;;;;;24.01;53.65;100184.50;10522285;28;20036;-76
2021/08/07 08:53:59;;;;;;;8.02;2.63;;;;;;;23.83;53.22;100175.13;10504370;28;20039;-78
2021/08/07 08:59:03;;;;;;;3.50;2.90;;;;;;;24.34;54.28;100089.19;10521761;28;20047;-79
2021/08/07 09:04:04;;;;;;;10.10;3.45;;;;;;;24.81;52.24;100159.09;10521588;28;20047;-79
2021/08/07 09:09:09;;;;;;;4.93;2.45;;;;;;;24.36;50.17;100127.66;10504687;28;20067;-78
2021/08/07 09:14:16;;;;;;;2.95;2.08;;;;;;;25.26;53.32;100139.78;10539271;28;20055;-77
2021/08/07 09:19:17;;;;;;;2.78;2.08;;;;;;;24.99;49.49;100142.63;10538909;28;20043;-78
2021/08/07 09:24:18;;;;;;;5.47;2.30;;;;;;;24.11;51.84;100138.09;10539364;28;20368;-79
2021/08/07 09:29:18;;;;;;;5.32;2.13;;;;;;;24.81;51.78;100141.66;10521096;28;20081;-79
2021/08/07 09:34:19;;;;;;;2.30;2.13;;;;;;;24.78;47.99;100134.78;10503388;28;20115;-77
2021/08/07 09:39:37;;;;;;;2.90;1.85;;;;;;;25.93;51.89;100119.50;10538863;28;20044;-79
2021/08/07 09:44:38;;;;;;;1.55;1.50;;;;;;;25.84;43.73;100106.72;10520883;28;20071;-81
2021/08/07 09:49:40;;;;;;;1.52;1.42;;;;;;;25.71;48.30;100111.22;10520997;28;20482;-80
2021/08/07 09:54:41;;;;;;;1.63;1.58;;;;;;;25.22;46.05;100122.16;10503820;28;20036;-79
2021/08/07 09:59:49;;;;;;;4.53;2.35;;;;;;;26.33;48.67;100104.81;10519925;28;20074;-80
2021/08/07 10:04:49;;;;;;;2.05;1.92;;;;;;;26.77;45.84;100034.34;10524054;28;20036;-80
2021/08/07 10:09:50;;;;;;;2.17;2.00;;;;;;;26.33;47.06;100102.84;10528241;28;20036;-81
2021/08/07 10:14:50;;;;;;;4.82;1.90;;;;;;;25.91;45.55;100085.75;10546082;28;20135;-80
2021/08/07 10:19:51;;;;;;;2.33;1.88;;;;;;;26.20;48.28;100103.78;10546092;28;20570;-80
2021/08/07 10:24:51;;;;;;;3.38;2.95;;;;;;;25.35;45.82;100028.19;10511248;28;20035;-79
2021/08/07 10:29:52;;;;;;;2.63;2.08;;;;;;;25.21;46.98;100070.66;10526834;28;20025;-78
2021/08/07 10:34:53;;;;;;;6.93;2.05;;;;;;;26.49;44.53;100094.91;10527355;28;20438;-77
2021/08/07 10:39:53;;;;;;;5.78;2.20;;;;;;;26.96;45.78;100039.53;10545197;28;20036;-79
2021/08/07 10:44:53;;;;;;;1.88;1.50;;;;;;;27.18;43.55;100063.56;10516951;28;20040;-80
2021/08/07 10:49:54;;;;;;;1.58;1.48;;;;;;;27.68;43.63;100042.66;10484993;28;20063;-80
2021/08/07 10:54:54;;;;;;;5.10;1.33;;;;;;;27.16;43.19;100065.88;10505900;28;20109;-80
2021/08/07 10:59:55;;;;;;;10.85;2.20;;;;;;;27.90;41.76;100059.13;10544469;28;20028;-80
2021/08/07 11:04:55;;;;;;;2.40;1.85;;;;;;;29.44;46.67;100037.13;10544482;28;20035;-80
2021/08/07 11:10:15;;;;;;;2.75;2.25;;;;;;;28.21;39.77;100060.78;10506932;28;20054;-80
2021/08/07 11:15:31;;;;;;;2.00;1.88;;;;;;;28.74;43.29;100032.22;10540825;28;20055;-79
2021/08/07 11:20:39;;;;;;;2.45;2.25;;;;;;;29.41;43.10;99927.06;10543149;28;20644;-80
2021/08/07 11:25:51;;;;;;;1.63;1.42;;;;;;;28.92;42.39;99948.47;10542307;28;20039;-80
2021/08/07 11:31:14;;;;;;;3.25;2.75;;;;;;;28.58;46.02;100041.53;10542391;28;20357;-80
2021/08/07 11:36:15;;;;;;;1.83;1.45;;;;;;;27.41;39.19;99927.94;10543647;28;20544;-78
2021/08/07 11:41:28;;;;;;;3.20;1.73;;;;;;;26.17;42.02;99963.72;10481771;28;20037;-80
2021/08/07 11:46:33;;;;;;;4.10;1.65;;;;;;;26.05;41.14;99996.84;10500709;28;20043;-80
2021/08/07 11:51:34;;;;;;;5.65;1.58;;;;;;;26.19;42.01;100002.22;10482492;28;20056;-82
2021/08/07 11:56:36;;;;;;;1.27;1.27;;;;;;;25.96;41.96;99957.97;10482608;28;20064;-82
2021/08/07 12:01:37;;;;;;;2.88;1.50;;;;;;;25.57;45.91;99969.09;10515259;28;20028;-80
2021/08/07 12:06:39;;;;;;;1.52;1.35;;;;;;;25.23;44.94;99959.47;10523176;28;20067;-83
2021/08/07 12:11:40;;;;;;;9.57;2.22;;;;;;;24.94;43.91;99996.75;10482134;28;20464;-82
2021/08/07 12:16:41;;;;;;;2.40;1.50;;;;;;;25.28;44.10;99978.75;10465370;28;20098;-82
2021/08/07 12:21:41;;;;;;;1.45;1.35;;;;;;;25.69;43.62;100000.63;10481322;28;20123;-80
2021/08/07 12:26:46;;;;;;;13.88;2.75;;;;;;;26.33;44.90;99991.00;10497589;28;20039;-81
2021/08/07 12:31:47;;;;;;;1.45;1.35;;;;;;;26.24;43.54;99927.16;10480032;28;20028;-80
2021/08/07 12:37:02;;;;;;;1.80;1.48;;;;;;;26.16;44.85;99984.31;10498520;28;20028;-81
2021/08/07 12:42:03;;;;;;;5.72;2.53;;;;;;;24.51;43.71;99847.00;10533182;28;20036;-81
2021/08/07 12:47:03;;;;;;;1.35;1.08;;;;;;;25.33;44.50;99894.66;10505419;28;20028;-81
2021/08/07 12:52:09;;;;;;;2.70;1.80;;;;;;;26.26;45.76;99971.22;10521230;28;20431;-83
2021/08/07 12:57:22;;;;;;;1.73;1.30;;;;;;;25.78;45.34;99914.66;10540555;28;20445;-81
2021/08/07 13:02:25;;;;;;;1.10;1.10;;;;;;;25.80;42.78;99881.88;10539026;28;20365;-79
2021/08/07 13:07:32;;;;;;;5.20;1.67;;;;;;;26.84;46.12;99953.28;10521286;28;20115;-79
2021/08/07 13:12:41;;;;;;;1.10;1.10;;;;;;;27.78;43.74;99968.00;10520368;28;20082;-80
2021/08/07 13:17:44;;;;;;;1.00;0.93;;;;;;;27.17;41.75;99881.28;10520731;28;20427;-81
2021/08/07 13:22:57;;;;;;;1.00;1.00;;;;;;;26.62;42.22;99907.88;10488236;28;20165;-80
2021/08/07 13:28:10;;;;;;;1.05;0.98;;;;;;;27.25;42.88;99936.03;10520785;28;20024;-80
2021/08/07 13:33:10;;;;;;;3.17;1.15;;;;;;;26.88;42.45;99913.38;10538090;28;20036;-80
2021/08/07 13:38:10;;;;;;;0.80;0.80;;;;;;;27.18;41.84;99952.38;10521259;28;20039;-83
2021/08/07 13:43:11;;;;;;;1.60;1.10;;;;;;;27.04;41.54;99915.63;10512381;28;20032;-80
2021/08/07 13:48:11;;;;;;;1.48;1.33;;;;;;;26.27;42.04;99865.44;10547419;28;20075;-81
2021/08/07 13:53:12;;;;;;;1.70;1.38;;;;;;;26.40;41.44;99921.94;10546641;28;20032;-80
2021/08/07 13:58:12;;;;;;;1.35;1.25;;;;;;;26.33;41.74;99930.75;10547171;28;20399;-83
2021/08/07 14:03:14;;;;;;;0.85;0.85;;;;;;;25.23;43.46;99727.53;10496094;28;20052;-84
2021/08/07 14:08:14;;;;;;;4.25;1.85;;;;;;;25.86;42.69;99915.84;10527966;28;20036;-83
2021/08/07 14:13:15;;;;;;;1.45;1.35;;;;;;;24.61;41.54;99882.72;10502573;28;20056;-82
2021/08/07 14:18:15;;;;;;;4.72;1.65;;;;;;;24.35;43.17;99835.47;10503907;28;20036;-83
2021/08/07 14:23:16;;;;;;;0.90;0.90;;;;;;;24.90;44.08;99898.84;10469339;28;20044;-81
2021/08/07 14:28:16;;;;;;;1.63;1.52;;;;;;;24.61;42.71;99846.72;10485506;28;20040;-81
2021/08/07 14:33:16;;;;;;;7.10;1.13;;;;;;;24.72;42.79;99906.22;10454234;28;20066;-81
2021/08/07 14:38:17;;;;;;;1.45;1.35;;;;;;;24.23;44.71;99907.16;10502852;28;20393;-84
2021/08/07 14:43:17;;;;;;;1.73;1.33;;;;;;;24.04;44.93;99919.19;10502779;28;20048;-83
2021/08/07 14:48:17;;;;;;;4.35;1.95;;;;;;;22.87;47.64;99891.94;10502787;28;20040;-82
2021/08/07 14:53:18;;;;;;;2.38;1.83;;;;;;;21.87;47.01;99824.38;10467461;28;20066;-84
2021/08/07 14:58:18;;;;;;;2.70;1.75;;;;;;;22.20;49.22;99921.75;10485007;28;20033;-83
2021/08/07 15:03:19;;;;;;;6.93;2.38;;;;;;;21.13;56.55;99982.53;10467435;28;20036;-80
2021/08/07 15:08:19;;;;;;;1.63;1.40;;;;;;;19.77;60.42;99965.84;10502255;28;20119;-80
2021/08/07 15:13:20;;;;;;;3.88;2.13;;;;;;;19.52;60.77;99920.88;10501835;28;20057;-80
2021/08/07 15:18:20;;;;;;;6.32;2.15;;;;;;;19.78;60.33;99956.50;10501738;28;20047;-80
2021/08/07 15:23:20;;;;;;;3.85;2.00;;;;;;;19.97;59.11;99963.00;10501982;28;20041;-80
2021/08/07 15:28:21;;;;;;;3.55;2.30;;;;;;;19.87;59.04;99938.34;10501649;28;20388;-81
2021/08/07 15:33:21;;;;;;;3.10;2.80;;;;;;;19.75;59.86;99881.00;10500368;28;20116;-81
2021/08/07 15:38:22;;;;;;;3.10;2.80;;;;;;;20.34;58.73;99953.44;10484129;28;20101;-80
2021/08/07 15:43:22;;;;;;;5.35;2.15;;;;;;;20.27;58.63;99939.22;10500992;28;20107;-79
2021/08/07 15:48:23;;;;;;;7.50;2.05;;;;;;;20.19;59.19;99938.69;10466453;28;20032;-80
2021/08/07 15:53:23;;;;;;;5.10;2.35;;;;;;;19.88;59.88;99945.50;10466005;28;20039;-80
2021/08/07 15:58:24;;;;;;;3.38;1.92;;;;;;;19.90;59.51;99921.28;10500279;28;20365;-80
2021/08/07 16:03:25;;;;;;;7.00;2.47;;;;;;;19.99;59.65;99922.34;10499327;28;20025;-80
2021/08/07 16:08:25;;;;;;;2.45;2.15;;;;;;;19.50;59.90;99915.69;10499800;28;20111;-80
2021/08/07 16:13:26;;;;;;;3.58;1.67;;;;;;;19.21;60.79;99925.66;10499602;28;20052;-79
2021/08/07 16:18:26;;;;;;;4.63;2.05;;;;;;;18.97;61.72;99900.75;10499600;28;20602;-81
2021/08/07 16:23:27;;;;;;;5.78;2.33;;;;;;;19.16;63.44;99953.94;10481838;28;20476;-79
2021/08/07 16:28:27;;;;;;;1.10;1.10;;;;;;;19.09;63.20;99950.66;10499174;28;20064;-80
2021/08/07 16:33:27;;;;;;;12.18;2.78;;;;;;;19.55;62.82;99941.47;10481714;28;20036;-80
2021/08/07 16:38:28;;;;;;;1.60;1.50;;;;;;;19.22;63.69;99941.84;10499458;28;20032;-79
2021/08/07 16:43:28;;;;;;;1.42;1.33;;;;;;;18.99;65.80;99913.09;10480639;28;20044;-80
2021/08/07 16:48:29;;;;;;;1.55;1.42;;;;;;;18.90;64.83;99881.00;10480404;28;20060;-80
2021/08/07 16:53:29;;;;;;;6.72;2.40;;;;;;;19.51;64.39;99936.53;10498093;28;20538;-80
2021/08/07 16:58:29;;;;;;;2.08;1.90;;;;;;;19.24;66.36;99930.56;10497809;28;20040;-80
2021/08/07 17:03:30;;;;;;;2.33;2.13;;;;;;;19.40;65.56;99923.13;10479343;28;20047;-80
2021/08/07 17:08:30;;;;;;;0.95;0.95;;;;;;;19.62;65.40;99934.59;10497915;28;20036;-80
2021/08/07 17:13:31;;;;;;;2.50;1.90;;;;;;;19.89;64.63;99936.94;10497429;28;20517;-81
2021/08/07 17:18:31;;;;;;;2.90;1.83;;;;;;;19.69;64.52;99932.38;10497715;28;20081;-80
2021/08/07 17:23:31;;;;;;;9.25;2.08;;;;;;;19.49;63.95;99914.03;10480054;28;20024;-80
2021/08/07 17:28:32;;;;;;;2.05;1.30;;;;;;;19.33;64.10;99941.81;10479642;28;20036;-79
2021/08/07 17:33:33;;;;;;;13.55;2.22;;;;;;;19.08;64.56;99939.94;10478669;28;20099;-80
2021/08/07 17:38:33;;;;;;;1.52;1.15;;;;;;;18.31;66.90;99923.50;10479362;28;20115;-80
2021/08/07 17:43:34;;;;;;;4.22;1.20;;;;;;;18.44;65.36;99960.50;10497904;28;20365;-80
2021/08/07 17:48:35;;;;;;;1.40;1.30;;;;;;;18.32;65.59;99947.09;10497032;28;20040;-80
2021/08/07 17:53:35;;;;;;;6.82;1.92;;;;;;;18.29;65.19;99962.16;10476316;28;20502;-80
2021/08/07 17:58:35;;;;;;;1.67;1.27;;;;;;;18.27;65.17;99963.50;10492430;28;20032;-80
2021/08/07 18:03:40;;;;;;;1.80;1.70;;;;;;;17.83;64.46;99904.50;10491946;28;20040;-80
2021/08/07 18:08:40;;;;;;;1.55;1.48;;;;;;;18.19;64.42;99964.88;10493247;28;20044;-80
2021/08/07 18:13:41;;;;;;;4.53;1.70;;;;;;;18.01;65.15;99968.13;10492263;28;20082;-80
2021/08/07 18:18:41;;;;;;;6.22;2.10;;;;;;;18.05;64.85;99975.50;10493899;28;20029;-80
2021/08/07 18:23:42;;;;;;;2.30;2.10;;;;;;;18.12;64.43;99972.50;10493744;28;20514;-80
2021/08/07 18:28:42;;;;;;;2.38;1.85;;;;;;;17.75;65.14;99954.31;10482989;28;20099;-80
2021/08/07 18:33:43;;;;;;;1.88;1.30;;;;;;;18.11;65.29;99958.00;10500150;28;20028;-79
2021/08/07 18:38:43;;;;;;;4.15;2.33;;;;;;;18.07;65.51;99976.06;10500530;28;20462;-80
2021/08/07 18:43:44;;;;;;;2.88;1.27;;;;;;;17.70;67.06;99951.53;10500482;28;20463;-80
2021/08/07 18:48:46;;;;;;;2.42;1.52;;;;;;;17.88;65.55;99953.81;10500014;28;20089;-80
2021/08/07 18:53:47;;;;;;;1.15;1.15;;;;;;;17.96;65.27;99962.59;10480750;28;20033;-80
2021/08/07 18:58:47;;;;;;;1.92;1.58;;;;;;;17.89;65.31;99966.41;10497031;28;20063;-79
2021/08/07 19:03:48;;;;;;;1.40;1.30;;;;;;;17.00;65.74;99827.00;10498745;28;20063;-80
2021/08/07 19:08:48;;;;;;;1.67;1.50;;;;;;;17.60;65.48;99932.34;10498108;28;20138;-80
2021/08/07 19:13:49;;;;;;;1.63;1.52;;;;;;;17.79;65.08;99965.56;10459944;28;20132;-80
2021/08/07 19:18:49;;;;;;;0.98;0.98;;;;;;;17.66;65.39;99964.13;10494932;28;20048;-79
2021/08/07 19:23:50;;;;;;;3.67;1.73;;;;;;;17.59;66.93;99969.84;10494516;28;20044;-80
2021/08/07 19:28:51;;;;;;;2.10;1.80;;;;;;;17.69;66.02;99960.03;10475752;28;20062;-80
2021/08/07 19:33:51;;;;;;;2.67;1.80;;;;;;;17.74;66.57;99965.50;10475120;28;20032;-80
2021/08/07 19:38:51;;;;;;;1.08;1.05;;;;;;;17.13;66.17;99864.78;10473280;28;20170;-80
2021/08/07 19:43:52;;;;;;;3.95;1.58;;;;;;;17.70;66.85;99980.84;10494795;28;20094;-80
2021/08/07 19:48:52;;;;;;;2.10;1.95;;;;;;;17.86;66.27;99988.88;10494251;28;20115;-80
2021/08/07 19:53:53;;;;;;;3.67;1.88;;;;;;;17.87;65.27;99989.72;10496908;28;20124;-80
2021/08/07 19:58:53;;;;;;;1.85;1.45;;;;;;;17.61;65.66;99943.03;10497331;28;20055;-81
2021/08/07 20:03:54;;;;;;;1.63;1.52;;;;;;;17.93;66.47;99993.28;10492898;28;20407;-80
2021/08/07 20:08:55;;;;;;;1.90;1.80;;;;;;;17.74;67.58;99990.16;10470789;28;20036;-80
2021/08/07 20:13:56;;;;;;;4.82;2.33;;;;;;;17.83;68.17;99994.88;10469621;28;20490;-80
2021/08/07 20:18:56;;;;;;;1.65;1.55;;;;;;;17.64;69.54;99997.25;10492006;28;20187;-80
2021/08/07 20:23:57;;;;;;;2.72;1.77;;;;;;;17.27;70.44;99985.53;10473307;28;20108;-79
2021/08/07 20:28:57;;;;;;;2.92;1.50;;;;;;;16.74;71.28;99933.44;10473801;28;20033;-79
2021/08/07 20:33:59;;;;;;;2.38;1.50;;;;;;;17.36;70.68;99998.47;10472760;28;20071;-79
2021/08/07 20:39:00;;;;;;;1.23;1.23;;;;;;;17.36;71.17;100005.84;10491372;28;20040;-79
2021/08/07 20:44:01;;;;;;;1.67;1.58;;;;;;;17.60;69.27;100004.34;10491767;28;20040;-79
2021/08/07 20:49:01;;;;;;;1.73;1.63;;;;;;;16.70;72.11;99907.72;10491349;28;20033;-79
2021/08/07 20:54:02;;;;;;;2.40;2.17;;;;;;;17.30;71.88;99999.53;10472206;28;20031;-79
2021/08/07 20:59:02;;;;;;;3.80;1.40;;;;;;;17.66;70.29;99994.25;10489734;28;20120;-78
2021/08/07 21:04:04;;;;;;;2.05;1.58;;;;;;;17.33;70.78;99979.84;10488976;28;20131;-79
2021/08/07 21:09:04;;;;;;;6.18;2.42;;;;;;;17.32;71.98;100021.94;10501152;28;20044;-78
2021/08/07 21:14:05;;;;;;;1.85;1.73;;;;;;;17.31;72.07;100020.31;10500657;28;20086;-78
2021/08/07 21:19:05;;;;;;;1.85;1.73;;;;;;;17.23;73.39;100018.09;10532494;28;20485;-79
2021/08/07 21:24:05;;;;;;;7.65;2.25;;;;;;;17.54;71.79;100008.13;10532897;28;20028;-79
2021/08/07 21:29:06;;;;;;;5.07;2.33;;;;;;;17.63;71.28;100001.06;10532628;28;20066;-78
2021/08/07 21:34:06;;;;;;;6.22;2.58;;;;;;;17.77;71.06;100014.28;10532536;28;20122;-78
2021/08/07 21:39:07;;;;;;;3.38;2.08;;;;;;;17.52;72.15;100010.31;10533393;28;20063;-78
2021/08/07 21:44:11;;;;;;;4.13;1.48;;;;;;;17.19;72.60;99949.38;10532498;28;21124;-78
2021/08/07 21:49:12;;;;;;;2.13;2.03;;;;;;;17.65;72.31;100009.03;10534322;28;20028;-78
2021/08/07 21:54:12;;;;;;;6.90;2.53;;;;;;;17.55;72.82;99998.00;10534165;28;20039;-77
2021/08/07 21:59:13;;;;;;;3.75;2.08;;;;;;;17.51;73.45;99999.63;10535398;28;20055;-79
2021/08/07 22:04:13;;;;;;;8.48;2.88;;;;;;;17.17;73.06;99945.28;10543063;28;20039;-79
2021/08/07 22:09:17;;;;;;;2.75;2.58;;;;;;;17.64;72.53;100015.56;10540576;28;20036;-79
2021/08/07 22:14:18;;;;;;;5.22;4.70;;;;;;;17.61;72.82;99994.19;10491903;28;20044;-79
2021/08/07 22:19:18;;;;;;;7.43;4.22;;;;;;;17.75;72.30;100011.81;10515626;28;20483;-79
2021/08/07 22:24:19;;;;;;;5.38;4.88;;;;;;;17.68;73.08;100011.22;10520384;28;20021;-79
2021/08/07 22:29:19;;;;;;;7.60;5.72;;;;;;;17.64;74.09;99990.94;10508572;28;20058;-79
2021/08/07 22:34:19;;;;;;;6.93;6.32;;;;;;;17.65;73.94;99987.13;10519390;28;20047;-79
2021/08/07 22:39:20;;;;;;;10.32;6.72;;;;;;;17.79;73.24;99998.44;10518137;28;20032;-79
2021/08/07 22:44:20;;;;;;;9.20;5.80;;;;;;;17.71;72.78;99968.78;10502209;28;20558;-80
2021/08/07 22:49:21;;;;;;;7.25;6.57;;;;;;;17.64;74.20;99993.66;10540398;28;20060;-79
2021/08/07 22:54:21;;;;;;;18.90;7.65;;;;;;;17.46;73.36;99951.16;10516078;28;20053;-80
2021/08/07 22:59:22;;;;;;;13.30;6.78;;;;;;;17.32;74.01;99944.50;10498152;28;20123;-79
2021/08/07 23:04:22;;;;;;;7.70;4.68;;;;;;;17.61;74.33;99983.25;10497423;28;20036;-80
2021/08/07 23:09:23;;;;;;;10.50;4.53;;;;;;;16.84;73.79;99856.97;10497912;28;20045;-80